createdAt,value
2018-11-11T00:02:02.681Z,41.60
2018-11-11T00:04:32.893Z,42.87
2018-11-11T00:07:01.748Z,40.47
2018-11-11T00:09:30.309Z,44.43
2018-11-11T00:11:59.554Z,42.57
2018-11-11T00:14:28.687Z,43.73
2018-11-11T00:16:57.290Z,45.00
2018-11-11T00:19:28.043Z,43.33
2018-11-11T00:21:57.876Z,43.90
2018-11-11T00:24:26.563Z,40.83
2018-11-11T00:26:55.764Z,43.90
2018-11-11T00:29:24.859Z,43.53
2018-11-11T00:31:53.908Z,43.37
2018-11-11T00:34:22.943Z,45.60
2018-11-11T00:36:51.689Z,43.87
2018-11-11T00:39:21.841Z,44.50
2018-11-11T00:41:50.902Z,43.53
2018-11-11T00:44:19.543Z,48.33
2018-11-11T00:46:48.430Z,47.30
2018-11-11T00:49:17.363Z,43.30
2018-11-11T00:51:46.135Z,47.50
2018-11-11T00:54:15.132Z,47.73
2018-11-11T00:56:44.077Z,48.10
2018-11-11T00:59:13.097Z,49.30
2018-11-11T01:01:41.690Z,47.20
2018-11-11T01:04:11.239Z,44.07
2018-11-11T01:06:39.963Z,45.40
2018-11-11T01:09:09.034Z,48.30
2018-11-11T01:11:38.530Z,43.13
2018-11-11T01:14:07.727Z,46.33
2018-11-11T01:16:36.753Z,46.60
2018-11-11T01:19:06.327Z,46.20
2018-11-11T01:21:35.325Z,44.43
2018-11-11T01:24:04.223Z,42.57
2018-11-11T01:26:34.965Z,42.27
2018-11-11T01:29:03.623Z,43.27
2018-11-11T01:31:33.124Z,44.20
2018-11-11T01:34:01.836Z,43.80
2018-11-11T01:36:30.944Z,43.60
2018-11-11T01:38:59.696Z,42.13
2018-11-11T01:41:29.850Z,43.57
2018-11-11T01:43:59.377Z,44.17
2018-11-11T01:46:28.347Z,45.60
2018-11-11T01:48:57.919Z,43.23
2018-11-11T01:51:28.626Z,43.03
2018-11-11T01:53:57.379Z,42.87
2018-11-11T01:56:26.163Z,40.53
2018-11-11T01:58:54.742Z,41.67
2018-11-11T02:01:23.814Z,44.03
2018-11-11T02:03:52.851Z,40.70
2018-11-11T02:06:21.845Z,43.43
2018-11-11T02:08:50.576Z,41.07
2018-11-11T02:11:20.325Z,42.83
2018-11-11T02:13:49.466Z,42.57
2018-11-11T02:16:18.412Z,44.90
2018-11-11T02:18:47.505Z,42.83
2018-11-11T02:21:16.494Z,43.97
2018-11-11T02:23:45.243Z,42.50
2018-11-11T02:26:13.867Z,40.63
2018-11-11T02:28:42.602Z,41.00
2018-11-11T02:31:11.555Z,40.67
2018-11-11T02:33:40.249Z,44.30
2018-11-11T02:36:09.055Z,42.53
2018-11-11T02:38:38.119Z,41.70
2018-11-11T02:41:07.280Z,37.87
2018-11-11T02:43:36.151Z,41.37
2018-11-11T02:46:05.129Z,43.70
2018-11-11T02:48:34.569Z,41.57
2018-11-11T02:51:03.326Z,43.80
2018-11-11T02:53:32.088Z,43.10
2018-11-11T02:56:00.815Z,41.53
2018-11-11T02:58:29.641Z,44.30
2018-11-11T03:00:58.396Z,45.00
2018-11-11T03:03:27.930Z,42.23
2018-11-11T03:05:56.442Z,42.83
2018-11-11T03:08:25.275Z,41.67
2018-11-11T03:10:54.349Z,43.50
2018-11-11T03:13:23.069Z,44.00
2018-11-11T03:15:52.026Z,44.27
2018-11-11T03:18:21.062Z,45.70
2018-11-11T03:20:49.671Z,44.30
2018-11-11T03:23:18.341Z,41.13
2018-11-11T03:25:47.144Z,44.03
2018-11-11T03:28:15.982Z,43.87
2018-11-11T03:30:44.703Z,43.97
2018-11-11T03:33:13.485Z,45.03
2018-11-11T03:35:42.363Z,44.30
2018-11-11T03:38:11.109Z,44.00
2018-11-11T03:40:39.776Z,44.37
2018-11-11T03:43:08.852Z,47.37
2018-11-11T03:45:37.605Z,47.90
2018-11-11T03:48:06.339Z,44.53
2018-11-11T03:50:35.006Z,42.00
2018-11-11T03:53:03.837Z,44.03
2018-11-11T03:55:32.463Z,43.20
2018-11-11T03:58:01.065Z,43.63
2018-11-11T04:00:29.767Z,40.17
2018-11-11T04:02:58.966Z,39.97
2018-11-11T04:05:27.646Z,41.60
2018-11-11T04:07:56.151Z,42.40
2018-11-11T04:10:24.911Z,42.53
2018-11-11T04:12:53.932Z,41.30
2018-11-11T04:15:22.702Z,43.13
2018-11-11T04:17:51.527Z,40.43
2018-11-11T04:20:21.253Z,42.60
2018-11-11T04:22:49.942Z,41.17
2018-11-11T04:25:19.552Z,42.70
2018-11-11T04:27:48.057Z,41.27
2018-11-11T04:30:16.864Z,44.23
2018-11-11T04:32:45.913Z,42.60
2018-11-11T04:35:14.760Z,43.90
2018-11-11T04:37:43.467Z,42.93
2018-11-11T04:40:12.991Z,44.27
2018-11-11T04:42:42.034Z,46.83
2018-11-11T04:45:12.997Z,43.90
2018-11-11T04:47:41.542Z,42.77
2018-11-11T04:50:12.702Z,42.10
2018-11-11T04:52:42.022Z,42.67
2018-11-11T04:55:11.338Z,42.23
2018-11-11T04:57:40.126Z,39.50
2018-11-11T05:03:05.932Z,40.90
2018-11-11T05:05:34.654Z,39.20
2018-11-11T05:08:03.694Z,42.70
2018-11-11T05:10:32.653Z,42.17
2018-11-11T05:13:01.385Z,41.87
2018-11-11T05:15:30.410Z,41.03
2018-11-11T05:17:58.962Z,40.30
2018-11-11T05:20:27.851Z,40.13
2018-11-11T05:22:56.656Z,39.93
2018-11-11T05:25:25.561Z,39.37
2018-11-11T05:27:54.486Z,43.30
2018-11-11T05:30:23.152Z,42.33
2018-11-11T05:32:52.030Z,39.63
2018-11-11T05:35:20.929Z,41.70
2018-11-11T05:37:49.819Z,38.27
2018-11-11T05:40:18.737Z,42.33
2018-11-11T05:42:47.558Z,41.27
2018-11-11T05:45:16.649Z,44.07
2018-11-11T05:47:45.396Z,44.03
2018-11-11T05:50:15.550Z,41.60
2018-11-11T05:52:45.270Z,41.27
2018-11-11T05:55:13.886Z,42.60
2018-11-11T05:57:42.947Z,38.30
2018-11-11T06:00:13.600Z,43.07
2018-11-11T06:02:42.293Z,39.70
2018-11-11T06:05:12.311Z,41.83
2018-11-11T06:07:41.166Z,43.07
2018-11-11T06:10:11.461Z,43.20
2018-11-11T06:12:39.975Z,45.40
2018-11-11T06:15:10.612Z,44.27
2018-11-11T06:17:39.418Z,46.63
2018-11-11T06:20:10.810Z,44.23
2018-11-11T06:22:39.278Z,41.70
2018-11-11T06:25:08.058Z,42.13
2018-11-11T06:27:37.020Z,39.93
2018-11-11T06:30:06.468Z,41.67
2018-11-11T06:32:35.236Z,42.10
2018-11-11T06:35:04.403Z,40.07
2018-11-11T06:37:33.191Z,40.50
2018-11-11T06:40:01.699Z,42.90
2018-11-11T06:42:30.699Z,42.27
2018-11-11T06:44:59.557Z,43.77
2018-11-11T06:47:28.474Z,42.30
2018-11-11T06:49:57.742Z,41.87
2018-11-11T06:52:27.413Z,42.37
2018-11-11T06:55:00.363Z,41.10
2018-11-11T06:57:29.113Z,39.90
2018-11-11T06:59:58.050Z,41.47
2018-11-11T07:02:34.738Z,43.10
2018-11-11T07:05:03.850Z,42.47
2018-11-11T07:07:32.755Z,42.60
2018-11-11T07:10:01.648Z,42.70
2018-11-11T07:12:30.982Z,40.90
2018-11-11T07:14:59.609Z,40.33
2018-11-11T07:17:28.741Z,42.57
2018-11-11T07:19:58.076Z,42.00
2018-11-11T07:22:26.866Z,42.10
2018-11-11T07:24:56.142Z,40.67
2018-11-11T07:27:24.919Z,39.47
2018-11-11T07:29:54.133Z,39.50
2018-11-11T07:32:23.942Z,39.83
2018-11-11T07:34:54.049Z,41.43
2018-11-11T07:37:24.175Z,39.80
2018-11-11T07:39:54.282Z,37.90
2018-11-11T07:42:24.549Z,37.60
2018-11-11T07:44:54.217Z,38.67
2018-11-11T07:47:23.193Z,36.57
2018-11-11T07:49:52.675Z,37.20
2018-11-11T07:52:21.970Z,37.10
2018-11-11T07:54:55.369Z,39.10
2018-11-11T07:57:24.485Z,38.60
2018-11-11T07:59:55.251Z,39.17
2018-11-11T08:02:24.224Z,39.50
2018-11-11T08:04:53.253Z,40.90
2018-11-11T08:07:24.043Z,41.43
2018-11-11T08:09:54.450Z,41.37
2018-11-11T08:12:23.765Z,40.87
2018-11-11T08:14:52.474Z,40.47
2018-11-11T08:17:22.057Z,41.13
2018-11-11T08:19:51.598Z,41.33
2018-11-11T08:22:20.974Z,43.40
2018-11-11T08:24:49.616Z,39.47
2018-11-11T08:27:19.073Z,40.83
2018-11-11T08:29:48.378Z,41.93
2018-11-11T08:32:17.721Z,40.87
2018-11-11T08:34:48.908Z,40.40
2018-11-11T08:37:24.199Z,41.07
2018-11-11T08:39:53.782Z,41.60
2018-11-11T08:42:23.264Z,38.77
2018-11-11T08:44:55.450Z,40.80
2018-11-11T08:47:25.647Z,39.93
2018-11-11T08:49:55.840Z,39.53
2018-11-11T08:52:27.717Z,40.77
2018-11-11T08:54:57.162Z,40.90
2018-11-11T08:57:30.488Z,41.20
2018-11-11T09:00:02.034Z,42.20
2018-11-11T09:02:30.994Z,40.20
2018-11-11T09:05:01.491Z,40.37
2018-11-11T09:07:30.414Z,42.70
2018-11-11T09:10:01.136Z,40.63
2018-11-11T09:12:32.280Z,49.50
2018-11-11T09:15:09.457Z,47.47
2018-11-11T09:17:47.614Z,54.03
2018-11-11T09:20:18.069Z,41.20
2018-11-11T09:22:49.255Z,43.70
2018-11-11T09:25:19.458Z,42.97
2018-11-11T09:27:48.726Z,42.10
2018-11-11T09:30:19.406Z,40.03
2018-11-11T09:32:49.835Z,39.60
2018-11-11T09:35:19.331Z,41.50
2018-11-11T09:37:48.491Z,40.30
2018-11-11T09:40:17.782Z,40.67
2018-11-11T09:42:46.522Z,41.00
2018-11-11T09:45:17.605Z,40.70
2018-11-11T09:47:48.272Z,42.20
2018-11-11T09:50:18.102Z,40.47
2018-11-11T09:52:49.582Z,40.10
2018-11-11T09:55:26.332Z,40.63
2018-11-11T09:58:01.139Z,40.73
2018-11-11T10:00:35.179Z,38.83
2018-11-11T10:03:09.373Z,39.13
2018-11-11T10:05:54.836Z,40.20
2018-11-11T10:08:34.641Z,39.60
2018-11-11T10:11:13.466Z,40.33
2018-11-11T10:13:53.189Z,38.20
2018-11-11T10:16:38.612Z,38.03
2018-11-11T10:19:28.831Z,37.70
2018-11-11T10:22:04.580Z,38.93
2018-11-11T10:24:46.708Z,37.70
2018-11-11T10:27:33.349Z,39.83
2018-11-11T10:30:18.591Z,37.73
2018-11-11T10:33:46.971Z,37.10
2018-11-11T10:36:54.978Z,35.37
2018-11-11T10:40:44.951Z,37.67
2018-11-11T10:46:58.340Z,37.07
2018-11-11T10:49:47.502Z,36.27
2018-11-11T10:52:28.079Z,38.87
2018-11-11T10:55:04.343Z,39.00
2018-11-11T10:57:47.179Z,40.33
2018-11-11T11:00:25.558Z,37.53
2018-11-11T11:03:01.156Z,36.70
2018-11-11T11:05:37.192Z,37.70
2018-11-11T11:08:11.041Z,38.20
2018-11-11T11:10:48.911Z,37.10
2018-11-11T11:13:28.302Z,35.67
2018-11-11T11:16:00.230Z,35.93
2018-11-11T11:21:22.586Z,33.60
2018-11-11T11:24:02.886Z,34.37
2018-11-11T11:26:37.050Z,32.20
2018-11-11T11:29:15.504Z,32.73
2018-11-11T11:31:50.395Z,32.00
2018-11-11T11:34:29.525Z,32.93
2018-11-11T11:37:02.052Z,30.73
2018-11-11T11:39:42.642Z,32.03
2018-11-11T11:42:20.386Z,31.87
2018-11-11T11:44:54.462Z,31.80
2018-11-11T11:47:37.287Z,31.90
2018-11-11T11:50:10.288Z,32.57
2018-11-11T11:52:47.339Z,60.70
2018-11-11T11:55:20.493Z,36.70
2018-11-11T11:58:08.011Z,38.20
2018-11-11T12:00:48.071Z,34.27
2018-11-11T12:03:36.591Z,51.13
2018-11-11T12:06:10.473Z,41.23
2018-11-11T12:08:46.521Z,35.00
2018-11-11T12:11:37.416Z,34.90
2018-11-11T12:14:10.431Z,36.53
2018-11-11T12:16:40.989Z,35.70
2018-11-11T12:19:17.112Z,35.53
2018-11-11T12:21:51.719Z,35.63
2018-11-11T12:24:24.662Z,34.43
2018-11-11T12:27:11.416Z,34.70
2018-11-11T12:29:44.373Z,34.33
2018-11-11T12:32:17.495Z,31.47
2018-11-11T12:34:47.204Z,30.47
2018-11-11T12:37:19.967Z,32.50
2018-11-11T12:39:56.484Z,76.53
2018-11-11T12:42:27.250Z,34.30
2018-11-11T12:44:57.276Z,33.73
2018-11-11T12:47:32.210Z,32.10
2018-11-11T12:50:04.833Z,36.50
2018-11-11T12:52:39.167Z,33.43
2018-11-11T12:55:17.514Z,35.00
2018-11-11T12:57:51.258Z,34.27
2018-11-11T13:00:24.217Z,33.17
2018-11-11T13:03:04.831Z,33.13
2018-11-11T13:05:37.339Z,30.33
2018-11-11T13:08:16.021Z,30.27
2018-11-11T13:10:46.697Z,32.87
2018-11-11T13:13:18.656Z,30.70
2018-11-11T13:15:51.653Z,30.80
2018-11-11T13:18:27.964Z,27.27
2018-11-11T13:21:03.703Z,28.43
2018-11-11T13:23:40.389Z,25.73
2018-11-11T13:26:16.432Z,26.67
2018-11-11T13:28:54.831Z,25.67
2018-11-11T13:31:37.533Z,24.50
2018-11-11T13:34:13.403Z,24.77
2018-11-11T13:36:54.629Z,26.00
2018-11-11T13:39:41.154Z,24.00
2018-11-11T13:42:19.743Z,24.87
2018-11-11T13:44:54.009Z,23.97
2018-11-11T13:47:28.838Z,23.93
2018-11-11T13:50:00.862Z,22.70
2018-11-11T13:52:37.828Z,23.40
2018-11-11T13:55:14.776Z,23.00
2018-11-11T13:57:46.843Z,23.30
2018-11-11T14:00:27.705Z,22.93
2018-11-11T14:03:02.288Z,23.13
2018-11-11T14:05:35.131Z,23.10
2018-11-11T14:08:13.058Z,23.47
2018-11-11T14:10:49.737Z,23.50
2018-11-11T14:13:23.006Z,23.73
2018-11-11T14:15:56.789Z,22.50
2018-11-11T14:18:42.306Z,21.53
2018-11-11T14:21:16.958Z,22.00
2018-11-11T14:23:55.395Z,23.70
2018-11-11T14:26:32.983Z,23.10
2018-11-11T14:29:12.005Z,23.10
2018-11-11T14:31:42.839Z,22.40
2018-11-11T14:34:16.828Z,23.97
2018-11-11T14:36:47.859Z,22.27
2018-11-11T14:39:32.210Z,23.00
2018-11-11T14:42:13.116Z,22.20
2018-11-11T14:44:48.841Z,22.47
2018-11-11T14:47:25.429Z,21.43
2018-11-11T14:50:02.451Z,21.40
2018-11-11T14:52:36.472Z,20.57
2018-11-11T14:55:10.562Z,21.53
2018-11-11T14:57:41.728Z,19.87
2018-11-11T15:00:26.046Z,19.70
2018-11-11T15:03:08.967Z,21.33
2018-11-11T15:05:43.793Z,20.30
2018-11-11T15:08:17.356Z,21.40
2018-11-11T15:10:49.838Z,18.83
2018-11-11T15:13:24.652Z,20.10
2018-11-11T15:16:04.802Z,19.90
2018-11-11T15:18:40.459Z,19.40
2018-11-11T15:21:14.198Z,20.40
2018-11-11T15:26:24.201Z,21.20
2018-11-11T15:29:18.798Z,20.37
2018-11-11T15:31:50.378Z,18.90
2018-11-11T15:34:25.861Z,19.47
2018-11-11T15:37:01.355Z,19.87
2018-11-11T15:39:41.391Z,21.07
2018-11-11T15:42:16.128Z,19.33
2018-11-11T15:44:48.482Z,22.20
2018-11-11T15:47:19.344Z,21.67
2018-11-11T15:49:50.262Z,20.97
2018-11-11T15:52:28.083Z,22.27
2018-11-11T15:55:00.901Z,19.93
2018-11-11T15:57:33.264Z,20.07
2018-11-11T16:00:09.041Z,21.20
2018-11-11T16:02:44.041Z,20.50
2018-11-11T16:05:16.988Z,19.20
2018-11-11T16:07:57.738Z,21.03
2018-11-11T16:10:37.519Z,21.17
2018-11-11T16:13:09.742Z,20.43
2018-11-11T16:15:41.788Z,22.90
2018-11-11T16:18:15.761Z,22.50
2018-11-11T16:20:46.449Z,22.40
2018-11-11T16:23:20.902Z,20.10
2018-11-11T16:25:58.119Z,26.30
2018-11-11T16:28:34.120Z,26.27
2018-11-11T16:33:48.474Z,24.47
2018-11-11T16:36:18.428Z,22.20
2018-11-11T16:38:58.365Z,21.00
2018-11-11T16:41:29.128Z,22.07
2018-11-11T16:44:02.932Z,20.20
2018-11-11T16:46:34.093Z,19.90
2018-11-11T16:49:05.514Z,20.03
2018-11-11T16:51:38.594Z,20.30
2018-11-11T16:54:08.540Z,22.33
2018-11-11T16:56:37.853Z,20.07
2018-11-11T16:59:12.668Z,20.03
2018-11-11T17:01:43.529Z,22.40
2018-11-11T17:04:13.955Z,21.10
2018-11-11T17:06:47.690Z,18.67
2018-11-11T17:09:20.274Z,20.00
2018-11-11T17:11:51.312Z,21.40
2018-11-11T17:14:20.817Z,20.00
2018-11-11T17:16:52.527Z,21.17
2018-11-11T17:19:28.936Z,21.03
2018-11-11T17:22:02.975Z,21.90
2018-11-11T17:24:34.941Z,21.23
2018-11-11T17:27:07.098Z,20.20
2018-11-11T17:29:41.251Z,22.50
2018-11-11T17:32:12.321Z,20.27
2018-11-11T17:34:44.222Z,18.73
2018-11-11T17:37:14.734Z,18.20
2018-11-11T17:39:45.173Z,16.53
2018-11-11T17:42:19.987Z,17.37
2018-11-11T17:44:52.915Z,16.50
2018-11-11T17:47:25.655Z,16.80
2018-11-11T17:50:01.103Z,16.53
2018-11-11T17:52:32.436Z,16.53
2018-11-11T17:55:08.757Z,14.00
2018-11-11T17:57:43.277Z,16.10
2018-11-11T18:00:20.431Z,15.40
2018-11-11T18:02:58.076Z,15.00
2018-11-11T18:05:38.869Z,13.87
2018-11-11T18:08:12.071Z,13.30
2018-11-11T18:10:47.509Z,14.27
2018-11-11T18:13:20.625Z,13.87
2018-11-11T18:16:08.904Z,14.80
2018-11-11T18:18:43.785Z,14.07
2018-11-11T18:21:49.067Z,14.53
2018-11-11T18:24:23.894Z,14.17
2018-11-11T18:27:03.436Z,13.87
2018-11-11T18:29:38.317Z,14.10
2018-11-11T18:32:11.976Z,13.20
2018-11-11T18:34:50.950Z,13.60
2018-11-11T18:37:28.492Z,13.23
2018-11-11T18:40:01.732Z,15.30
2018-11-11T18:42:35.623Z,13.57
2018-11-11T18:45:13.122Z,13.70
2018-11-11T18:47:45.973Z,13.13
2018-11-11T18:50:27.197Z,13.50
2018-11-11T18:53:01.686Z,15.17
2018-11-11T18:55:34.522Z,12.47
2018-11-11T18:58:07.370Z,13.40
2018-11-11T19:00:50.887Z,13.97
2018-11-11T19:03:23.426Z,13.30
2018-11-11T19:05:54.809Z,12.90
2018-11-11T19:08:32.408Z,13.10
2018-11-11T19:11:21.606Z,12.63
2018-11-11T19:13:52.470Z,12.10
2018-11-11T19:16:28.436Z,10.70
2018-11-11T19:21:52.761Z,11.97
2018-11-11T19:24:29.637Z,10.83
2018-11-11T19:27:08.954Z,14.07
2018-11-11T19:29:48.150Z,11.20
2018-11-11T19:32:23.962Z,11.20
2018-11-11T19:35:12.872Z,13.07
2018-11-11T19:37:48.226Z,12.90
2018-11-11T19:40:25.302Z,10.10
2018-11-11T19:43:06.567Z,11.40
2018-11-11T19:45:43.771Z,12.20
2018-11-11T19:48:18.737Z,12.77
2018-11-11T19:50:51.328Z,12.57
2018-11-11T19:56:14.596Z,11.40
2018-11-11T19:58:48.807Z,10.50
2018-11-11T20:01:25.415Z,11.47
2018-11-11T20:03:58.491Z,12.53
2018-11-11T20:06:35.565Z,12.20
2018-11-11T20:09:21.658Z,12.20
2018-11-11T20:12:03.586Z,12.73
2018-11-11T20:14:37.973Z,14.07
2018-11-11T20:17:17.284Z,15.20
2018-11-11T20:19:54.341Z,13.33
2018-11-11T20:22:28.961Z,11.67
2018-11-11T20:25:01.838Z,11.77
2018-11-11T20:27:34.301Z,12.03
2018-11-11T20:30:10.083Z,11.23
2018-11-11T20:35:32.472Z,10.47
2018-11-11T20:38:08.621Z,11.67
2018-11-11T20:40:50.619Z,11.63
2018-11-11T20:43:22.610Z,10.50
2018-11-11T20:45:57.950Z,11.77
2018-11-11T20:48:31.964Z,10.70
2018-11-11T20:51:04.054Z,10.30
2018-11-11T20:53:35.344Z,10.10
2018-11-11T20:56:09.258Z,10.10
2018-11-11T20:58:39.763Z,10.53
2018-11-11T21:01:13.644Z,10.37
2018-11-11T21:03:43.955Z,10.40
2018-11-11T21:06:14.923Z,10.37
2018-11-11T21:08:45.591Z,11.43
2018-11-11T21:11:17.960Z,10.47
2018-11-11T21:13:49.746Z,10.37
2018-11-11T21:16:22.769Z,12.10
2018-11-11T21:18:55.057Z,10.70
2018-11-11T21:21:32.681Z,11.47
2018-11-11T21:24:08.976Z,11.43
2018-11-11T21:26:49.975Z,10.60
2018-11-11T21:29:23.331Z,10.03
2018-11-11T21:31:58.315Z,9.53
2018-11-11T21:34:27.804Z,10.43
2018-11-11T21:36:59.722Z,10.53
2018-11-11T21:39:32.636Z,10.43
2018-11-11T21:42:04.592Z,10.70
2018-11-11T21:44:36.046Z,10.03
2018-11-11T21:47:07.341Z,10.47
2018-11-11T21:49:38.189Z,10.37
2018-11-11T21:52:11.737Z,10.50
2018-11-11T21:54:43.796Z,10.07
2018-11-11T21:57:17.175Z,11.00
2018-11-11T21:59:48.233Z,10.60
2018-11-11T22:02:19.477Z,11.30
2018-11-11T22:04:52.710Z,11.63
2018-11-11T22:07:36.996Z,11.20
2018-11-11T22:10:10.606Z,11.77
2018-11-11T22:12:44.522Z,12.47
2018-11-11T22:15:13.721Z,13.97
2018-11-11T22:17:50.960Z,10.60
2018-11-11T22:20:22.850Z,14.20
2018-11-11T22:22:52.835Z,11.13
2018-11-11T22:25:24.394Z,12.80
2018-11-11T22:27:53.796Z,12.57
2018-11-11T22:30:23.622Z,12.27
2018-11-11T22:32:53.528Z,16.27
2018-11-11T22:35:23.282Z,15.13
2018-11-11T22:37:52.801Z,12.80
2018-11-11T22:40:22.230Z,13.83
2018-11-11T22:42:51.302Z,12.93
2018-11-11T22:45:21.193Z,13.80
2018-11-11T22:47:52.078Z,12.37
2018-11-11T22:50:21.519Z,13.10
2018-11-11T22:52:50.602Z,14.03
2018-11-11T22:55:23.346Z,12.40
2018-11-11T22:57:53.775Z,13.53
2018-11-11T23:00:28.493Z,13.50
2018-11-11T23:02:58.749Z,13.57
2018-11-11T23:05:27.884Z,14.03
2018-11-11T23:07:57.538Z,14.57
2018-11-11T23:10:27.885Z,14.40
2018-11-11T23:12:56.449Z,13.40
2018-11-11T23:15:25.339Z,13.80
2018-11-11T23:17:54.796Z,13.10
2018-11-11T23:20:23.988Z,13.57
2018-11-11T23:22:52.904Z,13.13
2018-11-11T23:25:21.543Z,13.83
2018-11-11T23:27:50.713Z,14.23
2018-11-11T23:30:20.645Z,13.50
2018-11-11T23:32:49.827Z,13.47
2018-11-11T23:35:19.014Z,13.77
2018-11-11T23:37:47.840Z,13.63
2018-11-11T23:40:17.622Z,12.83
2018-11-11T23:42:47.062Z,13.20
2018-11-11T23:45:15.938Z,13.30
2018-11-11T23:47:46.237Z,14.20
2018-11-11T23:50:16.227Z,13.20
2018-11-11T23:52:45.565Z,12.83
2018-11-11T23:55:16.146Z,13.40
2018-11-11T23:57:44.759Z,13.53
